EJU91TQ LIEO-LFLL
Flight info
| Callsign | EJU91TQ |
|---|---|
| Flight time | 1h 7m |
| Altitude | 38000 |
| Route | OKIVA P980 DIKEL DCT RATAP DCT MEGER DCT ERTEV DCT TOP/N0367F240 DCT RONOP DCT GIGUS/N0383F270 Z40 AMVAR |
| Aircraft | A320/M-SDE2E3FGHIJ1RWXYZ/LB1 |
Departure
| Time | 2026-04-29 11:53 |
|---|---|
| Airport | Olbia Costa Smeralda Airport (LIEO) |
Arrival
| Time | 2026-04-29 13:01 |
|---|---|
| Airport | Lyon Saint-Exupéry Airport (LFLL) |
| Time | Latitude | Longitude | Altitude | Speed | Heading |
|---|---|---|---|---|---|
| 2026-04-29 11:14 | 40.90078 | 9.51330 | 34 ft | 0 kts | 24° |
| 2026-04-29 11:45 | 40.90089 | 9.51344 | 32 ft | 7 kts | 56° |
| 2026-04-29 11:45 | 40.90082 | 9.51383 | 34 ft | 4 kts | 107° |
| 2026-04-29 11:46 | 40.90069 | 9.51437 | 34 ft | 8 kts | 111° |
| 2026-04-29 11:46 | 40.90024 | 9.51501 | 34 ft | 10 kts | 143° |
| 2026-04-29 11:46 | 40.89980 | 9.51515 | 34 ft | 6 kts | 182° |
| 2026-04-29 11:46 | 40.89943 | 9.51498 | 34 ft | 5 kts | 208° |
| 2026-04-29 11:47 | 40.89915 | 9.51465 | 34 ft | 6 kts | 231° |
| 2026-04-29 11:47 | 40.89891 | 9.51419 | 34 ft | 7 kts | 235° |
| 2026-04-29 11:47 | 40.89861 | 9.51361 | 33 ft | 7 kts | 235° |
| 2026-04-29 11:47 | 40.89834 | 9.51309 | 34 ft | 7 kts | 235° |
| 2026-04-29 11:48 | 40.89804 | 9.51253 | 34 ft | 8 kts | 235° |
| 2026-04-29 11:48 | 40.89772 | 9.51192 | 33 ft | 8 kts | 235° |
| 2026-04-29 11:48 | 40.89743 | 9.51136 | 34 ft | 7 kts | 235° |
| 2026-04-29 11:48 | 40.89722 | 9.51097 | 34 ft | 12 kts | 235° |
| 2026-04-29 11:49 | 40.89637 | 9.50929 | 34 ft | 18 kts | 237° |
| 2026-04-29 11:49 | 40.89568 | 9.50794 | 34 ft | 18 kts | 235° |
| 2026-04-29 11:49 | 40.89497 | 9.50666 | 34 ft | 17 kts | 233° |
| 2026-04-29 11:49 | 40.89423 | 9.50527 | 34 ft | 20 kts | 236° |
| 2026-04-29 11:50 | 40.89363 | 9.50445 | 34 ft | 18 kts | 198° |
| 2026-04-29 11:50 | 40.89275 | 9.50528 | 34 ft | 18 kts | 102° |
| 2026-04-29 11:50 | 40.89286 | 9.50654 | 34 ft | 0 kts | 57° |
| 2026-04-29 11:52 | 40.89295 | 9.50671 | 34 ft | 13 kts | 57° |
| 2026-04-29 11:52 | 40.89501 | 9.51071 | 33 ft | 88 kts | 55° |
| 2026-04-29 11:53 | 40.89971 | 9.51975 | 40 ft | 143 kts | 58° |
| 2026-04-29 11:53 | 40.90535 | 9.53067 | 624 ft | 146 kts | 58° |
| 2026-04-29 11:53 | 40.91113 | 9.54214 | 1197 ft | 157 kts | 60° |
| 2026-04-29 11:53 | 40.91772 | 9.55486 | 1583 ft | 179 kts | 59° |
| 2026-04-29 11:54 | 40.92532 | 9.56923 | 1944 ft | 202 kts | 61° |
| 2026-04-29 11:54 | 40.93384 | 9.58523 | 2289 ft | 223 kts | 60° |
| 2026-04-29 11:54 | 40.94329 | 9.60292 | 2688 ft | 245 kts | 56° |
| 2026-04-29 11:54 | 40.95333 | 9.62158 | 3483 ft | 252 kts | 58° |
| 2026-04-29 11:55 | 40.96520 | 9.63979 | 4058 ft | 274 kts | 38° |
| 2026-04-29 11:55 | 40.98300 | 9.64984 | 4854 ft | 285 kts | 8° |
| 2026-04-29 11:55 | 41.00264 | 9.64709 | 5774 ft | 288 kts | 337° |
| 2026-04-29 11:55 | 41.02072 | 9.63586 | 6698 ft | 288 kts | 330° |
| 2026-04-29 11:56 | 41.03874 | 9.62383 | 7592 ft | 290 kts | 330° |
| 2026-04-29 11:56 | 41.05672 | 9.61168 | 8525 ft | 291 kts | 330° |
| 2026-04-29 11:56 | 41.07430 | 9.59820 | 9423 ft | 292 kts | 320° |
| 2026-04-29 11:56 | 41.08904 | 9.57995 | 10291 ft | 290 kts | 307° |
| 2026-04-29 11:57 | 41.10132 | 9.55810 | 10773 ft | 307 kts | 303° |
| 2026-04-29 11:57 | 41.11416 | 9.53448 | 11258 ft | 321 kts | 303° |
| 2026-04-29 11:57 | 41.12731 | 9.51029 | 12022 ft | 326 kts | 303° |
| 2026-04-29 11:57 | 41.14061 | 9.48587 | 12837 ft | 328 kts | 303° |
| 2026-04-29 11:58 | 41.15405 | 9.46123 | 13616 ft | 331 kts | 303° |
| 2026-04-29 11:58 | 41.16759 | 9.43641 | 14344 ft | 333 kts | 303° |
| 2026-04-29 11:58 | 41.18122 | 9.41137 | 15026 ft | 336 kts | 303° |
| 2026-04-29 11:58 | 41.19497 | 9.38608 | 15644 ft | 341 kts | 303° |
| 2026-04-29 11:59 | 41.20892 | 9.36043 | 16279 ft | 344 kts | 303° |
| 2026-04-29 11:59 | 41.22300 | 9.33450 | 16936 ft | 348 kts | 303° |
| 2026-04-29 11:59 | 41.23687 | 9.30795 | 17586 ft | 351 kts | 302° |
| 2026-04-29 11:59 | 41.25027 | 9.28068 | 18214 ft | 354 kts | 301° |
| 2026-04-29 12:00 | 41.26351 | 9.25285 | 18780 ft | 358 kts | 300° |
| 2026-04-29 12:00 | 41.27678 | 9.22468 | 19333 ft | 361 kts | 300° |
| 2026-04-29 12:00 | 41.29018 | 9.19635 | 19887 ft | 364 kts | 300° |
| 2026-04-29 12:00 | 41.30388 | 9.16792 | 20464 ft | 366 kts | 303° |
| 2026-04-29 12:01 | 41.32096 | 9.14252 | 21001 ft | 373 kts | 317° |
| 2026-04-29 12:01 | 41.34268 | 9.12318 | 21526 ft | 380 kts | 332° |
| 2026-04-29 12:01 | 41.36773 | 9.11143 | 22037 ft | 387 kts | 346° |
| 2026-04-29 12:01 | 41.39475 | 9.10823 | 22560 ft | 394 kts | 358° |
| 2026-04-29 12:02 | 41.42224 | 9.10918 | 23069 ft | 396 kts | 359° |
| 2026-04-29 12:02 | 41.44991 | 9.11018 | 23620 ft | 398 kts | 359° |
| 2026-04-29 12:02 | 41.47770 | 9.11119 | 24057 ft | 401 kts | 359° |
| 2026-04-29 12:02 | 41.50562 | 9.11219 | 24498 ft | 403 kts | 359° |
| 2026-04-29 12:03 | 41.53376 | 9.11317 | 24913 ft | 405 kts | 359° |
| 2026-04-29 12:03 | 41.56202 | 9.11402 | 25322 ft | 407 kts | 358° |
| 2026-04-29 12:03 | 41.59039 | 9.11421 | 25709 ft | 409 kts | 357° |
| 2026-04-29 12:03 | 41.61895 | 9.11390 | 26110 ft | 411 kts | 357° |
| 2026-04-29 12:04 | 41.64761 | 9.11339 | 26514 ft | 413 kts | 357° |
| 2026-04-29 12:04 | 41.67648 | 9.11285 | 26911 ft | 416 kts | 357° |
| 2026-04-29 12:04 | 41.70546 | 9.11238 | 27305 ft | 418 kts | 357° |
| 2026-04-29 12:04 | 41.73503 | 9.11200 | 27695 ft | 420 kts | 357° |
| 2026-04-29 12:05 | 41.76431 | 9.11175 | 28077 ft | 423 kts | 358° |
| 2026-04-29 12:05 | 41.79382 | 9.11154 | 28452 ft | 425 kts | 358° |
| 2026-04-29 12:05 | 41.82343 | 9.11136 | 28832 ft | 427 kts | 358° |
| 2026-04-29 12:05 | 41.85322 | 9.11117 | 29231 ft | 429 kts | 358° |
| 2026-04-29 12:06 | 41.88310 | 9.11098 | 29643 ft | 430 kts | 358° |
| 2026-04-29 12:06 | 41.91315 | 9.11078 | 30003 ft | 432 kts | 357° |
| 2026-04-29 12:06 | 41.94327 | 9.11056 | 30324 ft | 434 kts | 357° |
| 2026-04-29 12:06 | 41.97356 | 9.11033 | 30621 ft | 436 kts | 357° |
| 2026-04-29 12:07 | 42.00396 | 9.11009 | 30922 ft | 438 kts | 357° |
| 2026-04-29 12:07 | 42.03453 | 9.10984 | 31200 ft | 440 kts | 358° |
| 2026-04-29 12:07 | 42.06523 | 9.10958 | 31499 ft | 441 kts | 357° |
| 2026-04-29 12:07 | 42.09587 | 9.10931 | 31909 ft | 440 kts | 357° |
| 2026-04-29 12:08 | 42.12645 | 9.10903 | 32310 ft | 439 kts | 357° |
| 2026-04-29 12:08 | 42.15699 | 9.10874 | 32662 ft | 439 kts | 357° |
| 2026-04-29 12:08 | 42.18749 | 9.10850 | 33034 ft | 438 kts | 358° |
| 2026-04-29 12:08 | 42.21795 | 9.10831 | 33414 ft | 438 kts | 358° |
| 2026-04-29 12:09 | 42.24841 | 9.10815 | 33785 ft | 437 kts | 358° |
| 2026-04-29 12:09 | 42.27882 | 9.10795 | 34159 ft | 437 kts | 357° |
| 2026-04-29 12:09 | 42.30918 | 9.10771 | 34477 ft | 436 kts | 357° |
| 2026-04-29 12:09 | 42.33954 | 9.10745 | 34757 ft | 436 kts | 357° |
| 2026-04-29 12:10 | 42.36989 | 9.10721 | 35033 ft | 436 kts | 357° |
| 2026-04-29 12:10 | 42.40021 | 9.10697 | 35319 ft | 435 kts | 357° |
| 2026-04-29 12:10 | 42.43084 | 9.10671 | 35573 ft | 435 kts | 357° |
| 2026-04-29 12:10 | 42.46074 | 9.10647 | 35845 ft | 435 kts | 357° |
| 2026-04-29 12:11 | 42.49139 | 9.10621 | 36085 ft | 435 kts | 357° |
| 2026-04-29 12:11 | 42.52139 | 9.10596 | 36235 ft | 437 kts | 357° |
| 2026-04-29 12:11 | 42.55223 | 9.10571 | 36407 ft | 438 kts | 357° |
| 2026-04-29 12:11 | 42.58272 | 9.10549 | 36633 ft | 438 kts | 356° |
| 2026-04-29 12:12 | 42.61328 | 9.10529 | 36866 ft | 438 kts | 356° |
| 2026-04-29 12:12 | 42.64377 | 9.10510 | 37107 ft | 438 kts | 356° |
| 2026-04-29 12:12 | 42.67426 | 9.10488 | 37351 ft | 438 kts | 356° |
| 2026-04-29 12:12 | 42.70467 | 9.10466 | 37589 ft | 438 kts | 356° |
| 2026-04-29 12:13 | 42.73516 | 9.10583 | 37814 ft | 439 kts | 2° |
| 2026-04-29 12:13 | 42.76562 | 9.10938 | 37979 ft | 440 kts | 2° |
| 2026-04-29 12:13 | 42.82659 | 9.11660 | 38009 ft | 439 kts | 2° |
| 2026-04-29 12:14 | 42.88742 | 9.12374 | 38011 ft | 439 kts | 1° |
| 2026-04-29 12:14 | 42.94819 | 9.13084 | 38012 ft | 438 kts | 1° |
| 2026-04-29 12:15 | 43.00900 | 9.13791 | 38017 ft | 439 kts | 1° |
| 2026-04-29 12:15 | 43.06981 | 9.14494 | 38026 ft | 438 kts | 1° |
| 2026-04-29 12:16 | 43.13061 | 9.15197 | 38040 ft | 439 kts | 1° |
| 2026-04-29 12:16 | 43.19153 | 9.15912 | 38036 ft | 439 kts | 1° |
| 2026-04-29 12:17 | 43.25276 | 9.16638 | 38044 ft | 439 kts | 1° |
| 2026-04-29 12:17 | 43.31359 | 9.16899 | 38074 ft | 434 kts | 350° |
| 2026-04-29 12:18 | 43.37096 | 9.14777 | 38055 ft | 424 kts | 332° |
| 2026-04-29 12:18 | 43.42339 | 9.11102 | 38050 ft | 423 kts | 329° |
| 2026-04-29 12:19 | 43.47569 | 9.07398 | 38061 ft | 423 kts | 329° |
| 2026-04-29 12:19 | 43.52808 | 9.03688 | 38061 ft | 423 kts | 329° |
| 2026-04-29 12:20 | 43.58040 | 8.99970 | 38062 ft | 423 kts | 329° |
| 2026-04-29 12:20 | 43.63270 | 8.96244 | 38059 ft | 423 kts | 329° |
| 2026-04-29 12:21 | 43.68380 | 8.92275 | 38073 ft | 421 kts | 326° |
| 2026-04-29 12:21 | 43.73365 | 8.88014 | 38076 ft | 421 kts | 325° |
| 2026-04-29 12:22 | 43.78335 | 8.83750 | 38071 ft | 420 kts | 325° |
| 2026-04-29 12:22 | 43.83331 | 8.79546 | 38069 ft | 420 kts | 326° |
| 2026-04-29 12:23 | 43.87497 | 8.76083 | 38067 ft | 420 kts | 326° |
| 2026-04-29 12:23 | 43.92537 | 8.71879 | 38082 ft | 420 kts | 326° |
| 2026-04-29 12:24 | 43.97528 | 8.67684 | 38078 ft | 419 kts | 326° |
| 2026-04-29 12:24 | 44.02516 | 8.63483 | 38074 ft | 419 kts | 326° |
| 2026-04-29 12:25 | 44.07457 | 8.59308 | 38072 ft | 418 kts | 326° |
| 2026-04-29 12:26 | 44.14936 | 8.52966 | 38080 ft | 418 kts | 326° |
| 2026-04-29 12:26 | 44.19899 | 8.48756 | 38078 ft | 418 kts | 326° |
| 2026-04-29 12:27 | 44.24860 | 8.44546 | 38083 ft | 418 kts | 326° |
| 2026-04-29 12:27 | 44.29820 | 8.40333 | 38082 ft | 417 kts | 326° |
| 2026-04-29 12:28 | 44.34770 | 8.36110 | 38088 ft | 417 kts | 325° |
| 2026-04-29 12:28 | 44.39711 | 8.31875 | 38092 ft | 416 kts | 325° |
| 2026-04-29 12:29 | 44.44645 | 8.27647 | 38088 ft | 416 kts | 325° |
| 2026-04-29 12:29 | 44.49579 | 8.23416 | 38087 ft | 416 kts | 325° |
| 2026-04-29 12:30 | 44.54509 | 8.19173 | 38085 ft | 416 kts | 326° |
| 2026-04-29 12:30 | 44.59435 | 8.14932 | 38083 ft | 416 kts | 325° |
| 2026-04-29 12:31 | 44.64368 | 8.10671 | 38087 ft | 416 kts | 325° |
| 2026-04-29 12:31 | 44.69294 | 8.06409 | 38090 ft | 416 kts | 325° |
| 2026-04-29 12:32 | 44.74217 | 8.02142 | 38102 ft | 416 kts | 325° |
| 2026-04-29 12:32 | 44.79134 | 7.97868 | 38096 ft | 415 kts | 325° |
| 2026-04-29 12:33 | 44.83438 | 7.92682 | 38088 ft | 405 kts | 301° |
| 2026-04-29 12:33 | 44.86282 | 7.85857 | 38086 ft | 404 kts | 298° |
| 2026-04-29 12:34 | 44.89092 | 7.78921 | 38077 ft | 405 kts | 298° |
| 2026-04-29 12:34 | 44.91882 | 7.72019 | 38078 ft | 405 kts | 298° |
| 2026-04-29 12:35 | 44.94675 | 7.65119 | 38097 ft | 405 kts | 298° |
| 2026-04-29 12:35 | 44.97466 | 7.58202 | 38096 ft | 405 kts | 298° |
| 2026-04-29 12:36 | 45.00251 | 7.51296 | 38121 ft | 405 kts | 298° |
| 2026-04-29 12:36 | 45.03033 | 7.44374 | 38164 ft | 405 kts | 298° |
| 2026-04-29 12:37 | 45.05827 | 7.37405 | 38176 ft | 404 kts | 298° |
| 2026-04-29 12:37 | 45.08601 | 7.30471 | 37761 ft | 408 kts | 298° |
| 2026-04-29 12:37 | 45.09992 | 7.26981 | 36914 ft | 413 kts | 298° |
| 2026-04-29 12:38 | 45.11384 | 7.23486 | 36616 ft | 404 kts | 298° |
| 2026-04-29 12:38 | 45.12772 | 7.19998 | 36120 ft | 400 kts | 298° |
| 2026-04-29 12:38 | 45.14115 | 7.16615 | 35645 ft | 397 kts | 298° |
| 2026-04-29 12:38 | 45.15462 | 7.13221 | 35139 ft | 394 kts | 298° |
| 2026-04-29 12:39 | 45.16802 | 7.09844 | 34645 ft | 392 kts | 299° |
| 2026-04-29 12:39 | 45.18132 | 7.06483 | 34111 ft | 390 kts | 299° |
| 2026-04-29 12:39 | 45.19456 | 7.03130 | 33547 ft | 389 kts | 299° |
| 2026-04-29 12:39 | 45.20793 | 6.99752 | 33019 ft | 386 kts | 299° |
| 2026-04-29 12:40 | 45.22106 | 6.96434 | 32502 ft | 384 kts | 299° |
| 2026-04-29 12:40 | 45.23405 | 6.93145 | 31986 ft | 382 kts | 298° |
| 2026-04-29 12:40 | 45.24697 | 6.89861 | 31470 ft | 380 kts | 298° |
| 2026-04-29 12:40 | 45.25978 | 6.86599 | 30970 ft | 378 kts | 298° |
| 2026-04-29 12:41 | 45.27256 | 6.83345 | 30475 ft | 376 kts | 298° |
| 2026-04-29 12:41 | 45.28525 | 6.80109 | 29945 ft | 374 kts | 298° |
| 2026-04-29 12:41 | 45.29788 | 6.76888 | 29446 ft | 371 kts | 298° |
| 2026-04-29 12:41 | 45.31036 | 6.73702 | 28960 ft | 368 kts | 298° |
| 2026-04-29 12:42 | 45.32276 | 6.70533 | 28481 ft | 366 kts | 298° |
| 2026-04-29 12:42 | 45.33518 | 6.67348 | 28014 ft | 363 kts | 298° |
| 2026-04-29 12:42 | 45.34744 | 6.64204 | 27536 ft | 361 kts | 298° |
| 2026-04-29 12:42 | 45.35956 | 6.61091 | 27088 ft | 359 kts | 298° |
| 2026-04-29 12:43 | 45.37160 | 6.57993 | 26641 ft | 357 kts | 298° |
| 2026-04-29 12:43 | 45.38358 | 6.54914 | 26210 ft | 355 kts | 298° |
| 2026-04-29 12:43 | 45.39553 | 6.51846 | 25785 ft | 354 kts | 298° |
| 2026-04-29 12:43 | 45.40743 | 6.48793 | 25357 ft | 352 kts | 298° |
| 2026-04-29 12:44 | 45.41921 | 6.45758 | 24944 ft | 350 kts | 298° |
| 2026-04-29 12:44 | 45.43093 | 6.42725 | 24535 ft | 349 kts | 298° |
| 2026-04-29 12:44 | 45.44258 | 6.39709 | 24124 ft | 347 kts | 298° |
| 2026-04-29 12:44 | 45.45419 | 6.36701 | 23702 ft | 346 kts | 298° |
| 2026-04-29 12:45 | 45.46576 | 6.33700 | 23240 ft | 344 kts | 298° |
| 2026-04-29 12:45 | 45.47738 | 6.30678 | 22802 ft | 342 kts | 298° |
| 2026-04-29 12:45 | 45.48877 | 6.27714 | 22395 ft | 340 kts | 298° |
| 2026-04-29 12:45 | 45.50007 | 6.24771 | 21965 ft | 337 kts | 298° |
| 2026-04-29 12:46 | 45.51132 | 6.21847 | 21535 ft | 336 kts | 298° |
| 2026-04-29 12:46 | 45.52255 | 6.18925 | 21096 ft | 336 kts | 298° |
| 2026-04-29 12:46 | 45.53357 | 6.16048 | 20681 ft | 334 kts | 298° |
| 2026-04-29 12:46 | 45.54470 | 6.13141 | 20255 ft | 333 kts | 298° |
| 2026-04-29 12:47 | 45.55594 | 6.10207 | 19812 ft | 333 kts | 298° |
| 2026-04-29 12:47 | 45.56703 | 6.07309 | 19380 ft | 333 kts | 298° |
| 2026-04-29 12:47 | 45.57811 | 6.04410 | 18949 ft | 333 kts | 298° |
| 2026-04-29 12:47 | 45.58905 | 6.01546 | 18526 ft | 333 kts | 298° |
| 2026-04-29 12:48 | 45.60027 | 5.98605 | 18048 ft | 333 kts | 298° |
| 2026-04-29 12:48 | 45.61132 | 5.95705 | 17612 ft | 332 kts | 298° |
| 2026-04-29 12:48 | 45.62230 | 5.92815 | 17186 ft | 331 kts | 298° |
| 2026-04-29 12:48 | 45.63325 | 5.89928 | 16775 ft | 329 kts | 298° |
| 2026-04-29 12:49 | 45.64412 | 5.87059 | 16356 ft | 328 kts | 298° |
| 2026-04-29 12:49 | 45.65499 | 5.84187 | 15945 ft | 328 kts | 297° |
| 2026-04-29 12:49 | 45.66577 | 5.81335 | 15531 ft | 327 kts | 297° |
| 2026-04-29 12:49 | 45.67663 | 5.78462 | 15103 ft | 327 kts | 297° |
| 2026-04-29 12:50 | 45.68394 | 5.76529 | 14824 ft | 327 kts | 297° |
| 2026-04-29 12:50 | 45.69837 | 5.72710 | 14446 ft | 322 kts | 297° |
| 2026-04-29 12:50 | 45.70881 | 5.69935 | 14312 ft | 313 kts | 297° |
| 2026-04-29 12:50 | 45.71905 | 5.67215 | 14050 ft | 309 kts | 297° |
| 2026-04-29 12:51 | 45.72923 | 5.64510 | 13720 ft | 308 kts | 297° |
| 2026-04-29 12:51 | 45.73934 | 5.61818 | 13370 ft | 306 kts | 297° |
| 2026-04-29 12:51 | 45.74937 | 5.59141 | 13043 ft | 305 kts | 297° |
| 2026-04-29 12:51 | 45.75934 | 5.56476 | 12700 ft | 303 kts | 297° |
| 2026-04-29 12:52 | 45.76941 | 5.53791 | 12342 ft | 301 kts | 297° |
| 2026-04-29 12:52 | 45.77931 | 5.51150 | 12016 ft | 299 kts | 296° |
| 2026-04-29 12:52 | 45.78912 | 5.48530 | 11653 ft | 299 kts | 297° |
| 2026-04-29 12:52 | 45.79561 | 5.46794 | 11431 ft | 298 kts | 297° |
| 2026-04-29 12:53 | 45.80538 | 5.44184 | 11095 ft | 295 kts | 297° |
| 2026-04-29 12:53 | 45.81501 | 5.41608 | 10519 ft | 292 kts | 297° |
| 2026-04-29 12:53 | 45.82466 | 5.39020 | 9905 ft | 290 kts | 297° |
| 2026-04-29 12:53 | 45.83411 | 5.36478 | 9242 ft | 288 kts | 297° |
| 2026-04-29 12:54 | 45.84351 | 5.33945 | 8710 ft | 286 kts | 297° |
| 2026-04-29 12:54 | 45.85282 | 5.31428 | 8207 ft | 285 kts | 297° |
| 2026-04-29 12:54 | 45.86215 | 5.28911 | 7706 ft | 287 kts | 298° |
| 2026-04-29 12:54 | 45.87157 | 5.26370 | 7221 ft | 289 kts | 298° |
| 2026-04-29 12:55 | 45.88052 | 5.23979 | 6969 ft | 282 kts | 301° |
| 2026-04-29 12:55 | 45.89238 | 5.21768 | 6633 ft | 279 kts | 315° |
| 2026-04-29 12:55 | 45.90673 | 5.19893 | 6256 ft | 278 kts | 319° |
| 2026-04-29 12:55 | 45.92072 | 5.17994 | 5970 ft | 277 kts | 310° |
| 2026-04-29 12:56 | 45.93007 | 5.15601 | 5818 ft | 274 kts | 287° |
| 2026-04-29 12:56 | 45.93256 | 5.12965 | 5355 ft | 262 kts | 264° |
| 2026-04-29 12:56 | 45.93025 | 5.10433 | 4932 ft | 250 kts | 252° |
| 2026-04-29 12:56 | 45.92176 | 5.08364 | 4535 ft | 237 kts | 220° |
| 2026-04-29 12:57 | 45.90765 | 5.07288 | 4160 ft | 227 kts | 189° |
| 2026-04-29 12:57 | 45.89243 | 5.07254 | 3870 ft | 215 kts | 173° |
| 2026-04-29 12:57 | 45.87757 | 5.07442 | 3596 ft | 213 kts | 173° |
| 2026-04-29 12:57 | 45.86297 | 5.07624 | 3327 ft | 205 kts | 173° |
| 2026-04-29 12:58 | 45.84923 | 5.07792 | 3061 ft | 194 kts | 172° |
| 2026-04-29 12:58 | 45.83599 | 5.07954 | 2808 ft | 189 kts | 173° |
| 2026-04-29 12:58 | 45.82317 | 5.08110 | 2552 ft | 180 kts | 172° |
| 2026-04-29 12:58 | 45.81078 | 5.08262 | 2326 ft | 172 kts | 173° |
| 2026-04-29 12:59 | 45.79948 | 5.08398 | 2109 ft | 155 kts | 173° |
| 2026-04-29 12:59 | 45.78916 | 5.08524 | 1900 ft | 144 kts | 174° |
| 2026-04-29 12:59 | 45.77930 | 5.08645 | 1719 ft | 140 kts | 173° |
| 2026-04-29 12:59 | 45.76944 | 5.08766 | 1521 ft | 141 kts | 173° |
| 2026-04-29 13:00 | 45.75971 | 5.08884 | 1331 ft | 139 kts | 173° |
| 2026-04-29 13:00 | 45.75010 | 5.09002 | 1137 ft | 138 kts | 173° |
| 2026-04-29 13:00 | 45.74050 | 5.09118 | 973 ft | 138 kts | 173° |
| 2026-04-29 13:00 | 45.73058 | 5.09243 | 797 ft | 131 kts | 174° |
| 2026-04-29 13:01 | 45.72325 | 5.09334 | 814 ft | 79 kts | 174° |
| 2026-04-29 13:01 | 45.71954 | 5.09378 | 820 ft | 40 kts | 179° |
| 2026-04-29 13:01 | 45.71722 | 5.09306 | 822 ft | 29 kts | 202° |
| 2026-04-29 13:01 | 45.71641 | 5.09204 | 816 ft | 16 kts | 251° |
| 2026-04-29 13:02 | 45.71628 | 5.09033 | 814 ft | 17 kts | 264° |
| 2026-04-29 13:02 | 45.71617 | 5.08875 | 814 ft | 15 kts | 265° |
| 2026-04-29 13:02 | 45.71607 | 5.08712 | 808 ft | 18 kts | 265° |
| 2026-04-29 13:02 | 45.71599 | 5.08553 | 804 ft | 13 kts | 280° |
| 2026-04-29 13:03 | 45.71665 | 5.08485 | 802 ft | 12 kts | 326° |
| 2026-04-29 13:03 | 45.71681 | 5.08376 | 800 ft | 12 kts | 265° |
| 2026-04-29 13:03 | 45.71676 | 5.08264 | 801 ft | 9 kts | 268° |
| 2026-04-29 13:03 | 45.71643 | 5.08225 | 802 ft | 5 kts | 195° |
| 2026-04-29 13:04 | 45.71613 | 5.08214 | 802 ft | 4 kts | 195° |
| 2026-04-29 13:04 | 45.71603 | 5.08210 | 802 ft | 0 kts | 194° |